Time;durP1;ratioP1;P1;durP2;ratioP2;P2;SDS_P1;SDS_P2;PMS_P1;PMS_P2;Temp;Humidity;BMP_temperature;BMP_pressure;BME280_temperature;BME280_humidity;BME280_pressure;Samples;Min_cycle;Max_cycle;Signal;HPM_P1;HPM_P2
2023/06/27 00:01:39;;;;;;;5.85;2.00;;;22.30;51.00;;;20.88;44.67;100971.41;5012476;28;20046;-79
2023/06/27 00:04:10;;;;;;;5.90;2.10;;;22.30;51.30;;;20.85;44.69;100961.94;5010544;28;20039;-80
2023/06/27 00:10:04;;;;;;;6.32;2.05;;;22.20;51.30;;;20.88;44.65;100965.97;4953840;28;20054;-79
2023/06/27 00:12:32;;;;;;;5.65;2.00;;;22.20;51.30;;;20.83;44.63;100964.88;5031383;28;20450;-79
2023/06/27 00:14:59;;;;;;;8.30;2.25;;;22.20;51.40;;;20.80;44.41;100964.63;5022755;28;20041;-79
2023/06/27 00:17:27;;;;;;;6.25;2.20;;;22.20;51.40;;;20.78;44.89;100969.47;5031070;28;20136;-79
2023/06/27 00:19:58;;;;;;;4.95;1.90;;;22.10;51.50;;;20.78;44.93;100962.16;5026999;28;20052;-79
2023/06/27 00:22:26;;;;;;;6.75;2.05;;;22.10;51.50;;;20.72;45.04;100962.44;5020342;28;20100;-80
2023/06/27 00:24:56;;;;;;;3.80;2.00;;;22.10;51.70;;;20.67;45.36;100973.25;5008901;28;20100;-79
2023/06/27 00:27:23;;;;;;;6.37;2.03;;;22.10;51.90;;;20.68;45.44;100972.16;5011041;28;20045;-79
2023/06/27 00:29:52;;;;;;;6.45;1.90;;;22.10;52.10;;;20.72;45.01;100974.06;5036156;28;20050;-79
2023/06/27 00:32:19;;;;;;;6.25;1.92;;;22.00;51.90;;;20.70;45.06;100970.03;5018974;28;20049;-79
2023/06/27 00:34:46;;;;;;;4.07;2.03;;;22.00;52.00;;;20.66;44.93;100968.91;5045583;28;20071;-79
2023/06/27 00:37:13;;;;;;;4.88;2.03;;;22.00;51.90;;;20.63;45.08;100969.44;5030017;28;20045;-80
2023/06/27 00:39:41;;;;;;;8.95;1.75;;;22.00;52.10;;;20.62;45.41;100973.25;5005790;28;20046;-79
2023/06/27 00:42:09;;;;;;;4.82;2.00;;;22.00;52.20;;;20.62;45.43;100973.25;5001688;28;20137;-79
2023/06/27 00:44:37;;;;;;;5.25;2.03;;;21.90;52.30;;;20.62;45.44;100962.41;5045078;28;20053;-79
2023/06/27 00:47:08;;;;;;;4.53;1.90;;;21.90;52.40;;;20.57;45.78;100977.56;5028940;28;20127;-79
2023/06/27 00:49:37;;;;;;;5.00;2.15;;;21.90;52.50;;;20.54;45.65;100964.53;5024192;28;20049;-79
2023/06/27 00:52:06;;;;;;;5.13;2.10;;;21.90;52.60;;;20.51;45.64;100965.06;5029716;28;20125;-79
2023/06/27 00:54:33;;;;;;;4.30;2.10;;;21.90;52.60;;;20.43;46.01;100965.53;5010025;28;20455;-79
2023/06/27 00:57:01;;;;;;;8.43;2.17;;;21.80;52.80;;;20.45;46.15;100962.59;5010321;28;20042;-79
2023/06/27 00:59:29;;;;;;;6.15;2.40;;;21.80;52.80;;;20.49;45.81;100959.09;5007791;28;20069;-79
2023/06/27 01:01:56;;;;;;;5.43;2.20;;;21.80;53.00;;;20.43;45.84;100965.53;5017101;28;20141;-79
2023/06/27 01:04:25;;;;;;;6.43;2.53;;;21.80;53.10;;;20.31;45.96;100965.78;5020612;28;20049;-79
2023/06/27 01:07:05;;;;;;;5.80;2.20;;;21.70;53.20;;;20.32;46.07;100961.97;5020601;28;20566;-79
2023/06/27 01:09:42;;;;;;;4.38;2.03;;;21.70;53.30;;;20.25;46.44;100957.84;5009239;28;20121;-79
2023/06/27 01:12:19;;;;;;;6.32;2.40;;;21.70;53.30;;;20.26;46.27;100954.09;5015659;28;20037;-79
2023/06/27 01:14:50;;;;;;;5.55;2.10;;;21.70;53.40;;;20.20;46.25;100955.13;5008285;28;20140;-79
2023/06/27 01:17:21;;;;;;;7.18;2.42;;;21.60;53.40;;;20.20;46.58;100961.34;5015753;28;20506;-79
2023/06/27 01:19:52;;;;;;;4.43;2.15;;;21.60;53.40;;;20.19;46.75;100956.22;5018815;28;20129;-79
2023/06/27 01:22:33;;;;;;;5.00;2.47;;;21.60;53.60;;;20.16;46.51;100963.00;5015075;28;20042;-79
2023/06/27 01:25:06;;;;;;;7.47;2.45;;;21.60;53.60;;;20.15;46.43;100953.22;5013968;28;20069;-79
2023/06/27 01:27:35;;;;;;;9.27;2.40;;;21.60;53.60;;;20.17;46.47;100955.69;5028896;28;20060;-79
2023/06/27 01:30:05;;;;;;;7.93;2.55;;;21.50;53.60;;;20.14;46.84;100954.28;5021737;28;20124;-79
2023/06/27 01:32:41;;;;;;;6.25;2.28;;;21.50;53.70;;;20.05;46.53;100948.56;5016503;28;20054;-79
2023/06/27 01:35:19;;;;;;;5.13;2.40;;;21.50;53.80;;;20.06;46.84;100955.63;5000794;28;20050;-79
2023/06/27 01:37:54;;;;;;;5.57;2.50;;;21.50;53.90;;;20.12;46.40;100952.94;4998207;28;20042;-79
2023/06/27 01:40:29;;;;;;;7.97;2.08;;;21.50;53.80;;;20.04;46.87;100946.13;5002559;28;20046;-79
2023/06/27 01:43:03;;;;;;;8.50;2.70;;;21.40;53.80;;;19.98;46.72;100941.75;5020245;28;20123;-79
2023/06/27 01:45:31;;;;;;;6.50;2.72;;;21.40;53.80;;;19.95;46.63;100943.09;5019397;28;20087;-79
2023/06/27 01:47:59;;;;;;;7.18;3.20;;;21.40;53.90;;;19.97;46.69;100942.84;5038915;28;20128;-79
2023/06/27 01:50:27;;;;;;;7.10;2.70;;;21.40;53.80;;;19.99;47.04;100941.47;5008704;28;20473;-79
2023/06/27 01:52:54;;;;;;;8.85;2.72;;;21.30;54.00;;;19.93;46.74;100936.31;5016848;28;20453;-79
2023/06/27 01:55:23;;;;;;;8.82;2.63;;;21.30;53.90;;;19.92;46.99;100929.28;5008263;28;20142;-79
2023/06/27 01:57:50;;;;;;;7.55;2.53;;;21.30;54.00;;;19.91;47.07;100935.75;5000860;28;20120;-79
2023/06/27 02:00:19;;;;;;;7.90;2.65;;;21.30;54.10;;;19.89;46.82;100932.50;5009867;28;20069;-79
2023/06/27 02:03:01;;;;;;;7.30;2.77;;;21.20;54.10;;;19.86;46.85;100944.66;5025155;28;20048;-79
2023/06/27 02:05:28;;;;;;;5.65;2.55;;;21.30;54.10;;;19.88;47.06;100931.69;5019644;28;20777;-79
2023/06/27 02:07:56;;;;;;;8.90;2.97;;;21.20;54.20;;;19.88;46.86;100931.69;4993604;28;20049;-79
2023/06/27 02:10:27;;;;;;;7.20;2.65;;;21.20;54.20;;;19.89;46.74;100933.31;5006697;28;20085;-79
2023/06/27 02:12:54;;;;;;;4.88;2.25;;;21.20;54.30;;;19.95;46.72;100937.66;5014726;28;20141;-79
2023/06/27 02:15:21;;;;;;;8.30;2.65;;;21.20;54.20;;;19.93;46.71;100933.59;4994329;28;20105;-80
2023/06/27 02:17:48;;;;;;;7.35;2.78;;;21.20;54.30;;;19.98;46.71;100926.31;5007939;28;20046;-79
2023/06/27 02:20:16;;;;;;;6.80;2.30;;;21.20;54.30;;;20.01;46.75;100930.41;5010499;28;20069;-79
2023/06/27 02:22:43;;;;;;;6.50;2.50;;;21.20;54.40;;;20.00;47.17;100929.56;5043323;28;20490;-79
2023/06/27 02:25:30;;;;;;;7.05;2.97;;;21.20;54.80;;;20.00;47.46;100928.75;5028725;28;20112;-79
2023/06/27 02:27:58;;;;;;;7.18;2.70;;;21.20;55.00;;;19.99;47.06;100927.94;5017282;28;20053;-79
2023/06/27 02:30:28;;;;;;;6.88;2.35;;;21.20;54.90;;;20.01;47.26;100923.09;5012103;28;20045;-79
2023/06/27 02:32:57;;;;;;;7.88;2.58;;;21.20;55.00;;;19.98;46.89;100918.19;5023965;28;20077;-79
2023/06/27 02:35:24;;;;;;;7.18;2.60;;;21.10;55.10;;;19.98;47.02;100925.50;5024126;28;20078;-79
2023/06/27 02:37:52;;;;;;;7.72;2.83;;;21.10;55.00;;;19.90;47.56;100924.09;5004152;28;20149;-79
2023/06/27 02:40:19;;;;;;;7.70;3.13;;;21.10;55.40;;;19.88;47.22;100917.34;5029084;28;20524;-79
2023/06/27 02:42:46;;;;;;;6.50;2.50;;;21.10;55.20;;;19.85;47.36;100926.78;5038447;28;20057;-79
2023/06/27 02:45:16;;;;;;;6.38;2.67;;;21.10;55.30;;;19.85;47.38;100923.25;4989762;28;20157;-79
2023/06/27 02:47:44;;;;;;;7.70;2.75;;;21.00;55.20;;;19.88;47.24;100914.63;5020278;28;20030;-79
2023/06/27 02:50:12;;;;;;;5.78;2.47;;;21.10;55.30;;;19.89;47.55;100921.66;5013710;28;20047;-79
2023/06/27 02:52:39;;;;;;;5.13;2.50;;;21.10;55.30;;;19.85;47.45;100925.97;5032064;28;20103;-79
2023/06/27 02:55:07;;;;;;;6.10;2.58;;;21.10;55.30;;;19.84;47.58;100929.75;5032148;28;20417;-79
2023/06/27 02:57:34;;;;;;;7.40;2.63;;;21.00;55.50;;;19.85;47.84;100923.25;5032402;28;20045;-79
2023/06/27 03:00:04;;;;;;;4.78;2.50;;;21.10;55.70;;;19.83;47.80;100922.72;5029331;28;20066;-79
2023/06/27 03:02:33;;;;;;;8.52;2.65;;;21.00;55.70;;;19.79;47.82;100938.66;5015956;28;20129;-79
2023/06/27 03:05:00;;;;;;;7.47;2.65;;;21.00;55.60;;;19.78;47.53;100931.63;5024085;28;20509;-79
2023/06/27 03:07:27;;;;;;;10.38;2.80;;;21.00;55.60;;;19.74;47.94;100930.50;5007796;28;20054;-79
2023/06/27 03:09:54;;;;;;;5.50;2.60;;;21.00;55.80;;;19.69;48.25;100927.78;5026500;28;20049;-79
2023/06/27 03:12:22;;;;;;;5.57;2.53;;;21.00;55.90;;;19.67;48.26;100933.44;5037617;28;20060;-79
2023/06/27 03:14:49;;;;;;;8.52;2.63;;;21.00;56.00;;;19.68;48.13;100937.78;5008674;28;20138;-79
2023/06/27 03:17:17;;;;;;;7.10;2.22;;;21.00;56.10;;;19.68;48.67;100940.50;5018572;28;20709;-79
2023/06/27 03:19:46;;;;;;;7.68;2.40;;;21.00;56.40;;;19.68;48.66;100942.38;5009529;28;20052;-79
2023/06/27 03:22:15;;;;;;;8.18;2.70;;;21.00;56.50;;;19.67;48.54;100933.44;5022111;28;20069;-79
2023/06/27 03:24:43;;;;;;;5.32;2.25;;;20.90;56.30;;;19.72;48.76;100930.78;5028618;28;20052;-79
2023/06/27 03:27:10;;;;;;;6.00;2.38;;;20.90;56.70;;;19.67;48.80;100928.03;5023631;28;20120;-79
2023/06/27 03:29:40;;;;;;;6.28;2.65;;;20.90;56.70;;;19.67;48.33;100925.34;5036609;28;20052;-79
2023/06/27 03:32:10;;;;;;;5.95;2.50;;;20.90;56.50;;;19.70;48.62;100932.91;5040758;28;20068;-79
2023/06/27 03:34:38;;;;;;;6.60;2.60;;;20.90;56.70;;;19.70;48.93;100935.63;5029173;28;20041;-79
2023/06/27 03:37:07;;;;;;;6.32;2.58;;;20.90;57.00;;;19.69;48.81;100930.47;5000750;28;20536;-81
2023/06/27 03:39:35;;;;;;;6.27;2.50;;;20.90;56.80;;;19.66;48.75;100930.97;5080878;22;20149;-81
2023/06/27 03:42:03;;;;;;;7.20;2.58;;;20.90;56.80;;;19.65;48.58;100937.47;4978352;28;20041;-81
2023/06/27 03:44:31;;;;;;;7.30;2.60;;;20.90;56.80;;;19.64;48.74;100938.56;4983697;28;20085;-81
2023/06/27 03:46:58;;;;;;;6.60;2.33;;;20.90;56.90;;;19.63;49.04;100935.03;4990675;28;20042;-82
2023/06/27 03:49:26;;;;;;;7.93;2.83;;;20.90;57.00;;;19.62;49.08;100936.13;4982431;28;20046;-82
2023/06/27 03:51:53;;;;;;;8.88;2.58;;;20.90;57.20;;;19.63;49.31;100939.63;4969736;28;20054;-82
2023/06/27 03:54:22;;;;;;;9.48;2.72;;;20.90;57.30;;;19.65;49.09;100935.59;4968820;28;20062;-81
2023/06/27 03:56:49;;;;;;;11.27;3.25;;;20.90;57.30;;;19.62;49.34;100935.28;4970337;28;20491;-81
2023/06/27 03:59:18;;;;;;;12.05;2.80;;;20.90;57.40;;;19.59;49.53;100939.31;4971377;28;20384;-81
2023/06/27 04:01:45;;;;;;;7.60;2.50;;;20.90;57.60;;;19.62;49.50;100929.88;4970329;28;20047;-82
2023/06/27 04:04:13;;;;;;;10.85;3.25;;;20.80;57.50;;;19.64;49.41;100925.84;4970210;28;20472;-81
2023/06/27 04:06:40;;;;;;;9.88;2.60;;;20.80;57.70;;;19.68;49.19;100936.97;4999108;28;20035;-81
2023/06/27 04:09:07;;;;;;;10.07;3.30;;;20.80;57.60;;;19.68;49.27;100928.84;4980116;28;20070;-82
2023/06/27 04:11:36;;;;;;;6.38;2.60;;;20.80;58.00;;;19.69;49.71;100935.88;4970166;28;20038;-86
2023/06/27 04:14:03;;;;;;;11.05;3.00;;;20.80;58.00;;;19.69;50.11;100927.78;4971329;28;20038;-86
2023/06/27 04:16:31;;;;;;;9.23;3.20;;;20.80;58.10;;;19.67;49.95;100932.63;4986479;28;20038;-85
2023/06/27 04:18:58;;;;;;;10.13;3.13;;;20.80;58.30;;;19.66;50.07;100936.41;4970882;28;20138;-84
2023/06/27 04:21:25;;;;;;;10.18;2.90;;;20.90;58.20;;;19.67;50.13;100929.94;4967242;28;20051;-89
2023/06/27 04:23:54;;;;;;;9.85;3.10;;;20.80;58.50;;;19.62;50.05;100932.56;4972526;28;20039;-91
2023/06/27 04:26:21;;;;;;;10.73;3.22;;;20.80;58.50;;;19.67;49.90;100933.44;4972370;28;20051;-91
2023/06/27 04:28:50;;;;;;;5.88;2.75;;;20.80;58.20;;;19.70;49.88;100934.81;4974295;28;20078;-93
2023/06/27 04:31:18;;;;;;;8.07;2.60;;;20.80;58.30;;;19.70;49.96;100934.81;4975638;28;20046;-86
2023/06/27 04:33:45;;;;;;;7.30;2.80;;;20.80;58.70;;;19.63;50.49;100932.34;4985243;28;20042;-91
2023/06/27 04:36:15;;;;;;;11.00;3.33;;;20.80;59.10;;;19.64;50.57;100925.03;4987558;28;20097;-93
2023/06/27 04:38:44;;;;;;;8.75;2.97;;;20.80;59.10;;;19.68;50.88;100926.97;4987763;28;20066;-93
2023/06/27 04:41:12;;;;;;;9.93;2.95;;;20.80;59.50;;;19.75;51.36;100926.72;4974532;28;20050;-93
2023/06/27 04:43:40;;;;;;;8.82;3.20;;;20.90;60.50;;;19.74;52.06;100928.63;4999492;28;20093;-94
2023/06/27 04:46:09;;;;;;;9.10;3.25;;;20.80;61.10;;;19.69;52.35;100922.34;4976339;28;20094;-92
2023/06/27 04:48:39;;;;;;;8.48;2.97;;;20.80;61.60;;;19.64;52.47;100923.13;4972967;28;20053;-93
2023/06/27 04:51:06;;;;;;;7.38;2.90;;;20.80;61.80;;;19.62;52.41;100922.59;4971814;28;20043;-91
2023/06/27 04:53:34;;;;;;;11.65;3.03;;;20.70;61.80;;;19.59;52.29;100925.78;4973245;28;20518;-91
2023/06/27 04:56:01;;;;;;;11.05;3.17;;;20.70;61.80;;;19.55;52.84;100930.88;4968682;28;20503;-91
2023/06/27 04:58:28;;;;;;;11.25;3.10;;;20.60;62.40;;;19.60;52.77;100934.75;4988278;28;20562;-94
2023/06/27 05:00:56;;;;;;;9.95;3.88;;;20.70;62.60;;;19.57;52.52;100930.66;4973218;28;20508;-90
2023/06/27 05:03:25;;;;;;;8.57;2.72;;;20.70;62.20;;;19.58;52.89;100934.97;4982112;28;20058;-92
2023/06/27 05:05:52;;;;;;;11.85;3.67;;;20.60;62.50;;;19.60;52.91;100932.03;4971738;28;20559;-91
2023/06/27 05:08:19;;;;;;;11.13;2.92;;;20.60;62.80;;;19.56;52.32;100940.63;4987854;28;20051;-93
2023/06/27 05:10:49;;;;;;;7.30;3.17;;;20.60;62.10;;;19.62;53.03;100937.97;4977763;28;20735;-94
2023/06/27 05:13:25;;;;;;;9.18;3.45;;;20.70;62.50;;;19.69;52.83;100938.59;4971642;28;20047;-93
2023/06/27 05:16:03;;;;;;;9.05;3.20;;;20.70;62.50;;;19.72;52.57;100944.31;4971318;28;20054;-85
2023/06/27 05:18:31;;;;;;;8.07;3.38;;;20.70;62.40;;;19.72;53.06;100933.47;4969543;28;20079;-89
2023/06/27 05:20:59;;;;;;;15.95;3.80;;;20.70;62.80;;;19.74;52.91;100935.91;4972978;28;20058;-89
2023/06/27 05:23:26;;;;;;;9.55;3.38;;;20.80;62.60;;;19.76;52.49;100933.75;4988870;28;20046;-89
2023/06/27 05:25:53;;;;;;;12.70;3.22;;;20.80;62.20;;;19.75;52.32;100932.94;4983349;28;20055;-86
2023/06/27 05:28:20;;;;;;;11.88;3.55;;;20.80;62.20;;;19.80;52.88;100943.00;4968793;28;20094;-87
2023/06/27 05:30:48;;;;;;;8.63;2.88;;;20.80;62.50;;;19.81;52.82;100941.91;4963444;28;20775;-88
2023/06/27 05:33:15;;;;;;;6.40;2.78;;;20.80;62.70;;;19.79;52.84;100947.59;4965909;28;20435;-89
2023/06/27 05:35:44;;;;;;;10.30;3.17;;;20.80;62.80;;;19.74;52.97;100952.16;4972083;28;20783;-86
2023/06/27 05:38:12;;;;;;;14.45;3.38;;;20.80;63.00;;;19.73;53.21;100956.75;4967909;28;20161;-82
2023/06/27 05:40:39;;;;;;;7.90;3.30;;;20.80;63.20;;;19.63;53.13;100947.75;4967507;28;20057;-83
2023/06/27 05:43:06;;;;;;;11.68;3.40;;;20.70;62.90;;;19.67;53.17;100951.59;4979701;28;20061;-83
2023/06/27 05:45:33;;;;;;;9.52;3.17;;;20.70;63.10;;;19.71;52.95;100955.38;4970424;28;20102;-83
2023/06/27 05:48:02;;;;;;;9.70;3.10;;;20.70;62.90;;;19.71;53.46;100958.09;4968524;28;20045;-84
2023/06/27 05:50:29;;;;;;;10.30;3.42;;;20.70;63.30;;;19.71;53.36;100961.59;4967111;28;20070;-83
2023/06/27 05:52:58;;;;;;;12.35;3.45;;;20.80;63.20;;;19.77;53.24;100967.88;4980970;28;20035;-83
2023/06/27 05:55:25;;;;;;;9.13;3.05;;;20.80;63.20;;;19.70;53.76;100968.09;4969320;28;20045;-82
2023/06/27 05:57:52;;;;;;;10.85;2.97;;;20.70;63.60;;;19.70;53.47;100970.00;4967922;28;20042;-82
2023/06/27 06:00:21;;;;;;;8.45;3.25;;;20.70;63.30;;;19.68;53.55;100966.75;4983436;28;20514;-82
2023/06/27 06:02:48;;;;;;;11.63;3.55;;;20.70;63.60;;;19.65;53.37;100959.13;4961564;28;20420;-83
2023/06/27 06:05:17;;;;;;;13.25;3.50;;;20.70;63.50;;;19.68;54.18;100961.31;4970150;28;20043;-83
2023/06/27 06:07:45;;;;;;;11.93;3.72;;;20.70;64.00;;;19.73;54.22;100961.38;4968492;28;20100;-81
2023/06/27 06:10:14;;;;;;;14.02;3.70;;;20.80;64.20;;;19.75;54.26;100960.00;4968452;28;20050;-82
2023/06/27 06:12:43;;;;;;;12.40;3.75;;;20.80;64.20;;;19.83;54.31;100950.59;4969005;28;20051;-83
2023/06/27 06:15:10;;;;;;;13.82;3.80;;;20.80;64.50;;;19.79;54.20;100954.91;4969694;28;20042;-81
2023/06/27 06:17:37;;;;;;;15.73;3.85;;;20.80;64.30;;;19.82;54.95;100954.38;4981964;28;20042;-82
2023/06/27 06:20:10;;;;;;;9.90;3.53;;;20.80;65.50;;;19.89;56.36;100957.66;4974331;28;20039;-78
2023/06/27 06:22:37;;;;;;;12.40;3.70;;;20.90;67.40;;;19.97;55.29;100951.78;4964741;28;20051;-79
2023/06/27 06:25:06;;;;;;;10.45;3.72;;;21.00;65.90;;;20.11;56.12;100960.25;4956821;28;20048;-80
2023/06/27 06:27:35;;;;;;;11.05;3.65;;;21.00;66.80;;;20.20;54.89;100955.13;4966947;28;20113;-79
2023/06/27 06:30:03;;;;;;;13.02;3.70;;;21.10;65.80;;;20.25;54.87;100949.75;4967910;28;20762;-82
2023/06/27 06:32:30;;;;;;;9.88;3.80;;;21.20;66.00;;;20.33;55.82;100950.06;4975325;28;20145;-83
2023/06/27 06:34:57;;;;;;;12.55;4.60;;;21.20;66.80;;;20.46;55.74;100946.06;4968000;28;20047;-81
2023/06/27 06:37:25;;;;;;;11.32;4.10;;;21.30;66.70;;;20.51;54.04;100948.81;4981807;28;20051;-82
2023/06/27 06:39:52;;;;;;;18.52;4.05;;;21.40;65.00;;;20.50;54.16;100949.91;4967656;28;20492;-82
2023/06/27 06:42:19;;;;;;;14.90;4.60;;;21.40;64.80;;;20.51;53.85;100954.22;4969222;28;20043;-80
2023/06/27 06:44:49;;;;;;;14.77;4.25;;;21.40;65.10;;;20.65;53.83;100954.56;4971723;28;20094;-81
2023/06/27 06:47:16;;;;;;;12.25;4.80;;;21.50;65.00;;;20.73;54.59;100955.91;4967032;28;20039;-81
2023/06/27 06:49:43;;;;;;;13.80;4.30;;;21.60;65.40;;;20.79;54.78;100957.59;4968581;28;20093;-81
2023/06/27 06:52:11;;;;;;;15.75;4.28;;;21.60;65.90;;;20.80;53.72;100964.63;4977710;28;20127;-82
2023/06/27 06:54:38;;;;;;;16.27;5.15;;;21.70;64.40;;;20.72;53.42;100957.00;4966764;28;20042;-83
2023/06/27 06:57:08;;;;;;;18.02;5.07;;;21.60;64.40;;;20.81;54.40;100963.53;4967209;28;20243;-86
2023/06/27 06:59:36;;;;;;;14.52;4.90;;;21.70;65.20;;;20.77;53.41;100957.03;4967126;28;20050;-81
2023/06/27 07:02:05;;;;;;;13.55;4.57;;;21.60;64.00;;;20.68;53.60;100958.63;4970669;28;20085;-81
2023/06/27 07:04:32;;;;;;;15.40;4.22;;;21.60;64.50;;;20.71;54.59;100960.81;4972146;28;20108;-80
2023/06/27 07:07:00;;;;;;;12.55;4.80;;;21.60;65.30;;;20.82;54.75;100962.44;4972292;28;20122;-80
2023/06/27 07:09:28;;;;;;;14.57;4.60;;;21.70;65.60;;;20.91;54.50;100965.47;4969695;28;20039;-80
2023/06/27 07:11:55;;;;;;;17.60;5.07;;;21.80;65.80;;;20.96;53.76;100963.56;4963771;28;20049;-80
2023/06/27 07:14:23;;;;;;;16.08;4.47;;;21.80;64.80;;;21.07;54.32;100961.69;4964819;28;20143;-80
2023/06/27 07:16:52;;;;;;;16.33;4.53;;;21.90;65.60;;;21.14;53.49;100954.13;4958796;28;20054;-80
2023/06/27 07:19:21;;;;;;;15.13;4.97;;;22.00;64.80;;;21.23;54.63;100960.63;4978009;28;20050;-80
2023/06/27 07:21:48;;;;;;;17.13;5.15;;;22.10;66.00;;;21.31;54.61;100960.13;4965274;28;20038;-80
2023/06/27 07:24:16;;;;;;;15.32;4.90;;;22.10;65.40;;;21.40;53.83;100960.38;4965467;28;20054;-83
2023/06/27 07:26:43;;;;;;;17.00;4.88;;;22.20;65.00;;;21.51;54.07;100963.91;4965771;28;20038;-81
2023/06/27 07:29:11;;;;;;;17.05;4.65;;;22.30;65.30;;;21.55;53.62;100965.81;4961297;28;20047;-80
2023/06/27 07:31:38;;;;;;;17.48;5.13;;;22.40;64.40;;;21.59;53.07;100960.66;4966596;28;20054;-81
2023/06/27 07:34:05;;;;;;;23.52;5.95;;;22.40;64.00;;;21.67;53.29;100956.56;4969004;28;20047;-81
2023/06/27 07:36:34;;;;;;;18.17;5.13;;;22.50;64.60;;;21.70;53.43;100950.59;4971038;28;20095;-81
2023/06/27 07:39:01;;;;;;;17.10;5.13;;;22.50;64.60;;;21.73;53.17;100955.50;4971808;28;20074;-81
2023/06/27 07:41:29;;;;;;;20.58;5.20;;;22.50;64.20;;;21.70;52.93;100953.31;4966307;28;20038;-81
2023/06/27 07:43:56;;;;;;;14.70;4.22;;;22.50;64.20;;;21.64;53.24;100951.69;4980757;28;20051;-81
2023/06/27 07:46:24;;;;;;;13.98;4.40;;;22.50;64.10;;;21.68;53.34;100948.16;4968409;28;20102;-81
2023/06/27 07:48:51;;;;;;;19.48;5.40;;;22.50;64.30;;;21.82;53.86;100948.44;4968567;28;20133;-81
2023/06/27 07:51:18;;;;;;;16.33;5.18;;;22.70;64.80;;;21.87;53.52;100951.13;4970873;28;20054;-81
2023/06/27 07:53:47;;;;;;;14.35;4.80;;;22.60;64.60;;;21.89;54.27;100946.22;4966034;28;20085;-81
2023/06/27 07:56:14;;;;;;;14.27;4.50;;;22.60;65.20;;;21.92;53.58;100937.53;4969698;28;20045;-81
2023/06/27 07:58:43;;;;;;;12.35;4.60;;;22.70;64.90;;;22.01;54.69;100940.47;4973003;28;20051;-81
2023/06/27 08:01:10;;;;;;;13.38;4.20;;;22.80;65.80;;;22.12;54.10;100941.31;4967866;28;20415;-81
2023/06/27 08:03:37;;;;;;;17.40;5.10;;;22.90;65.60;;;22.18;52.95;100940.22;4965131;28;20165;-81
2023/06/27 08:06:05;;;;;;;14.82;5.10;;;23.00;64.00;;;22.17;52.41;100944.84;4967549;28;20086;-81
2023/06/27 08:08:32;;;;;;;19.02;5.10;;;23.00;63.30;;;22.26;52.95;100943.16;4963628;28;20443;-81
2023/06/27 08:11:01;;;;;;;15.88;5.25;;;23.00;64.10;;;22.33;52.19;100937.44;4970252;28;20606;-81
2023/06/27 08:13:29;;;;;;;16.05;4.90;;;23.10;63.10;;;22.38;53.65;100939.31;4967246;28;20070;-81
2023/06/27 08:15:56;;;;;;;16.25;4.72;;;23.10;64.60;;;22.43;54.08;100936.56;4969723;28;20053;-81
2023/06/27 08:18:24;;;;;;;18.13;5.25;;;23.20;65.20;;;22.50;52.83;100934.38;4969134;28;20050;-81
2023/06/27 08:20:54;;;;;;;18.00;5.30;;;23.20;63.80;;;22.54;53.42;100927.25;4961620;28;20047;-82
2023/06/27 08:23:21;;;;;;;13.10;4.78;;;23.30;64.80;;;22.54;52.05;100925.34;4967918;28;20046;-81
2023/06/27 08:25:49;;;;;;;18.52;4.75;;;23.30;63.30;;;22.66;53.11;100929.66;4967932;28;20098;-82
2023/06/27 08:28:17;;;;;;;15.15;4.10;;;23.40;64.00;;;22.69;53.22;100923.66;4966810;28;20105;-81
2023/06/27 08:30:45;;;;;;;16.27;4.90;;;23.50;64.30;;;22.75;51.74;100928.00;4968482;28;20047;-81
2023/06/27 08:33:12;;;;;;;16.23;4.50;;;23.50;62.70;;;22.72;51.04;100931.25;4969916;28;20278;-81
2023/06/27 08:35:40;;;;;;;13.23;4.75;;;23.50;61.90;;;22.67;51.80;100920.41;4969022;28;20562;-81
2023/06/27 08:38:09;;;;;;;12.93;5.00;;;23.40;62.50;;;22.70;51.34;100928.81;4974030;28;20561;-81
2023/06/27 08:40:37;;;;;;;13.75;5.25;;;23.50;62.20;;;22.61;50.53;100920.44;4968092;28;20043;-81
2023/06/27 08:43:06;;;;;;;14.95;4.65;;;23.40;61.30;;;22.63;50.34;100926.41;4967021;28;20489;-81
2023/06/27 08:45:35;;;;;;;16.92;4.72;;;23.40;60.80;;;22.72;50.74;100923.91;4967540;28;20043;-81
2023/06/27 08:48:04;;;;;;;17.35;5.70;;;23.50;61.40;;;22.81;51.37;100927.66;4969817;28;20043;-81
2023/06/27 08:50:34;;;;;;;16.60;5.10;;;23.60;62.00;;;22.84;51.11;100918.13;4964650;28;20039;-81
2023/06/27 08:53:05;;;;;;;19.02;5.95;;;23.60;61.90;;;22.86;48.86;100915.94;4965671;28;20047;-81
2023/06/27 08:55:40;;;;;;;15.88;5.57;;;23.60;59.30;;;22.79;49.89;100909.97;4973903;28;20066;-81
2023/06/27 08:58:15;;;;;;;16.30;5.10;;;23.60;60.00;;;22.81;49.65;100908.63;4970478;28;20057;-81
2023/06/27 09:00:45;;;;;;;8.32;3.50;;;23.60;59.70;;;22.89;49.17;100915.41;4979207;28;20053;-81
2023/06/27 09:03:13;;;;;;;14.38;3.40;;;23.70;59.60;;;22.96;51.70;100906.94;4968543;28;20061;-81
2023/06/27 09:05:41;;;;;;;15.90;4.03;;;23.70;62.30;;;23.01;50.52;100907.69;4969225;28;20042;-81
2023/06/27 09:08:09;;;;;;;12.25;4.05;;;23.80;60.80;;;23.05;50.65;100903.31;4977601;28;20463;-81
2023/06/27 09:10:36;;;;;;;13.52;4.15;;;23.80;61.00;;;22.99;49.28;100907.19;4967629;28;20038;-81
2023/06/27 09:13:04;;;;;;;11.30;3.78;;;23.70;59.50;;;22.94;49.29;100901.78;4962790;28;20039;-81
2023/06/27 09:15:32;;;;;;;11.82;3.75;;;23.70;59.30;;;22.91;46.59;100901.53;4969139;28;20057;-81
2023/06/27 09:18:00;;;;;;;10.57;3.63;;;23.70;56.40;;;22.75;46.58;100907.03;4972180;28;20124;-81
2023/06/27 09:20:28;;;;;;;10.50;3.53;;;23.60;56.50;;;22.69;46.81;100902.69;4966993;28;20661;-81
2023/06/27 09:22:58;;;;;;;10.07;3.15;;;23.50;56.80;;;22.70;47.99;100906.25;4964814;28;20058;-81
2023/06/27 09:25:26;;;;;;;9.88;2.85;;;23.50;58.20;;;22.78;48.38;100908.38;4966748;28;20057;-81
2023/06/27 09:27:54;;;;;;;11.48;2.70;;;23.60;58.30;;;22.77;49.30;100898.59;4970911;28;20066;-81
2023/06/27 09:30:21;;;;;;;11.30;3.33;;;23.60;59.20;;;22.68;47.10;100900.28;4968584;28;20757;-81
2023/06/27 09:32:57;;;;;;;12.95;2.95;;;23.40;56.90;;;22.52;46.39;100900.38;4961915;28;20093;-83
2023/06/27 09:35:31;;;;;;;11.95;3.15;;;23.30;56.40;;;22.49;48.33;100897.38;4961930;28;20075;-83
2023/06/27 09:38:06;;;;;;;16.27;3.30;;;23.30;58.30;;;22.45;48.52;100918.06;4966982;28;20125;-83
2023/06/27 09:40:40;;;;;;;10.60;3.15;;;23.10;58.50;;;22.42;49.16;100914.00;4964297;28;20053;-83
2023/06/27 09:43:09;;;;;;;8.90;2.67;;;22.90;59.70;;;22.44;49.11;100911.00;4968767;28;20466;-83
2023/06/27 09:45:36;;;;;;;10.32;2.80;;;22.80;60.20;;;22.45;47.86;100905.31;4969208;28;20046;-82
2023/06/27 10:17:40;;;;;;;10.32;2.70;;;21.90;59.80;;;21.94;46.95;100919.06;5003729;28;20046;-77
2023/06/27 10:20:11;;;;;;;8.65;2.75;;;21.90;59.20;;;21.94;46.99;100910.91;5002910;28;20100;-88
2023/06/27 10:22:44;;;;;;;10.25;2.97;;;22.00;59.20;;;21.98;48.73;100911.97;5007431;28;20050;-94
2023/06/27 10:25:18;;;;;;;10.50;3.03;;;22.10;60.70;;;21.98;47.88;100924.75;5009360;28;20077;-93
2023/06/27 10:27:48;;;;;;;6.70;2.40;;;22.10;60.10;;;21.98;48.14;100913.88;5007533;28;20788;-92
2023/06/27 10:30:25;;;;;;;6.72;2.40;;;22.00;59.90;;;21.95;46.77;100917.16;5017439;28;20097;-89
2023/06/27 10:33:09;;;;;;;13.20;2.67;;;22.00;58.50;;;21.95;47.32;100919.88;5002575;28;20493;-93
2023/06/27 10:35:49;;;;;;;11.25;2.58;;;22.00;59.10;;;21.92;47.99;100921.25;5004961;28;20038;-93
2023/06/27 10:38:19;;;;;;;11.23;2.53;;;22.00;60.00;;;21.94;48.71;100916.34;5004533;28;20502;-94
2023/06/27 10:41:11;;;;;;;7.78;2.25;;;22.00;60.60;;;;;;5005924;28;20061;-93
2023/06/27 10:43:41;;;;;;;6.55;2.40;;;22.00;61.60;;;21.90;49.15;100920.69;5001387;28;20458;-91
2023/06/27 10:46:17;;;;;;;12.98;2.58;;;22.00;61.60;;;21.84;48.38;100921.78;5004631;28;20050;-93
2023/06/27 10:48:53;;;;;;;9.20;2.40;;;21.90;60.60;;;21.79;48.17;100919.09;5008600;28;20038;-92
2023/06/27 10:51:22;;;;;;;10.75;2.80;;;21.80;60.30;;;21.73;46.54;100918.28;5020099;28;20049;-93